createdAt,value
2023-03-19T00:01:12.234Z,10.80
2023-03-19T00:03:40.921Z,10.80
2023-03-19T00:06:10.079Z,10.80
2023-03-19T00:08:39.455Z,10.80
2023-03-19T00:11:09.785Z,10.80
2023-03-19T00:13:38.806Z,10.70
2023-03-19T00:16:09.401Z,10.70
2023-03-19T00:18:39.674Z,10.70
2023-03-19T00:21:08.521Z,10.70
2023-03-19T00:23:37.990Z,10.70
2023-03-19T00:26:07.127Z,10.50
2023-03-19T00:28:37.376Z,10.50
2023-03-19T00:31:10.776Z,10.40
2023-03-19T00:33:43.218Z,10.40
2023-03-19T00:36:13.373Z,10.40
2023-03-19T00:38:42.626Z,10.40
2023-03-19T00:41:11.855Z,10.40
2023-03-19T00:43:41.709Z,10.40
2023-03-19T00:46:10.832Z,10.40
2023-03-19T00:48:40.880Z,10.40
2023-03-19T00:51:11.798Z,10.40
2023-03-19T00:53:40.781Z,10.30
2023-03-19T00:56:10.619Z,10.30
2023-03-19T00:58:41.168Z,10.20
2023-03-19T01:01:11.580Z,10.20
2023-03-19T01:03:41.667Z,10.10
2023-03-19T01:06:11.676Z,10.00
2023-03-19T01:08:40.873Z,10.00
2023-03-19T01:11:12.168Z,10.00
2023-03-19T01:13:41.630Z,9.90
2023-03-19T01:16:11.183Z,9.90
2023-03-19T01:18:41.774Z,9.90
2023-03-19T01:21:11.156Z,9.90
2023-03-19T01:23:39.972Z,9.80
2023-03-19T01:26:10.780Z,9.80
2023-03-19T01:28:39.796Z,9.80
2023-03-19T01:31:10.618Z,9.80
2023-03-19T01:33:42.091Z,9.70
2023-03-19T01:36:16.127Z,9.70
2023-03-19T01:38:44.767Z,9.70
2023-03-19T01:41:13.882Z,9.70
2023-03-19T01:43:42.509Z,9.70
2023-03-19T01:46:19.827Z,9.70
2023-03-19T01:48:53.176Z,9.70
2023-03-19T01:51:27.435Z,9.70
2023-03-19T01:54:00.644Z,9.70
2023-03-19T01:56:34.118Z,9.70
2023-03-19T01:59:07.885Z,9.60
2023-03-19T02:01:41.380Z,9.70
2023-03-19T02:04:11.856Z,9.70
2023-03-19T02:06:43.353Z,9.60
2023-03-19T02:09:14.641Z,9.60
2023-03-19T02:11:44.253Z,9.60
2023-03-19T02:14:13.482Z,9.60
2023-03-19T02:16:43.301Z,9.60
2023-03-19T02:19:30.409Z,9.60
2023-03-19T02:22:01.106Z,9.50
2023-03-19T02:24:37.007Z,9.50
2023-03-19T02:27:09.663Z,9.50
2023-03-19T02:29:39.863Z,9.50
2023-03-19T02:32:10.025Z,9.50
2023-03-19T02:34:41.049Z,9.50
2023-03-19T02:37:16.535Z,9.50
2023-03-19T02:39:53.572Z,9.50
2023-03-19T02:42:25.780Z,9.50
2023-03-19T02:44:54.623Z,9.50
2023-03-19T02:47:26.803Z,9.50
2023-03-19T02:49:56.925Z,9.50
2023-03-19T02:52:25.892Z,9.50
2023-03-19T02:54:54.882Z,9.60
2023-03-19T02:57:25.396Z,9.60
2023-03-19T02:59:54.114Z,9.60
2023-03-19T03:02:23.152Z,9.60
2023-03-19T03:04:52.278Z,9.60
2023-03-19T03:07:23.463Z,9.60
2023-03-19T03:09:53.050Z,9.60
2023-03-19T03:12:21.816Z,9.60
2023-03-19T03:14:53.176Z,9.60
2023-03-19T03:17:21.574Z,9.60
2023-03-19T03:19:49.960Z,9.60
2023-03-19T03:22:19.327Z,9.70
2023-03-19T03:24:48.579Z,9.60
2023-03-19T03:27:18.004Z,9.60
2023-03-19T03:29:47.120Z,9.60
2023-03-19T03:32:18.074Z,9.60
2023-03-19T03:34:47.822Z,9.50
2023-03-19T03:37:17.472Z,9.60
2023-03-19T03:39:46.784Z,9.50
2023-03-19T03:42:15.663Z,9.40
2023-03-19T03:44:44.449Z,9.40
2023-03-19T03:47:14.229Z,9.40
2023-03-19T03:49:45.736Z,9.40
2023-03-19T03:52:14.563Z,9.40
2023-03-19T03:54:46.713Z,9.40
2023-03-19T03:57:15.372Z,9.40
2023-03-19T03:59:44.290Z,9.30
2023-03-19T04:02:13.815Z,9.30
2023-03-19T04:04:44.378Z,9.30
2023-03-19T04:07:16.279Z,9.30
2023-03-19T04:09:46.535Z,9.30
2023-03-19T04:12:16.476Z,9.40
2023-03-19T04:14:45.605Z,9.40
2023-03-19T04:17:14.280Z,9.40
2023-03-19T04:19:44.805Z,9.40
2023-03-19T04:22:16.456Z,9.30
2023-03-19T04:24:45.233Z,9.30
2023-03-19T04:27:14.154Z,9.30
2023-03-19T04:29:43.208Z,9.30
2023-03-19T04:32:12.582Z,9.30
2023-03-19T04:34:42.247Z,9.30
2023-03-19T04:37:13.194Z,9.30
2023-03-19T04:39:41.633Z,9.30
2023-03-19T04:42:10.295Z,9.30
2023-03-19T04:44:39.185Z,9.30
2023-03-19T04:47:08.222Z,9.30
2023-03-19T04:49:36.589Z,9.40
2023-03-19T04:52:06.291Z,9.40
2023-03-19T04:54:36.688Z,9.40
2023-03-19T04:57:07.314Z,9.50
2023-03-19T04:59:36.276Z,9.50
2023-03-19T05:02:05.246Z,9.50
2023-03-19T05:04:34.286Z,9.40
2023-03-19T05:07:03.031Z,9.40
2023-03-19T05:09:32.482Z,9.40
2023-03-19T05:12:03.040Z,9.40
2023-03-19T05:14:32.679Z,9.40
2023-03-19T05:17:01.669Z,9.40
2023-03-19T05:19:31.165Z,9.40
2023-03-19T05:22:00.081Z,9.40
2023-03-19T05:24:28.958Z,9.40
2023-03-19T05:26:58.735Z,9.50
2023-03-19T05:29:29.318Z,9.50
2023-03-19T05:31:58.051Z,9.50
2023-03-19T05:34:27.459Z,9.50
2023-03-19T05:36:56.372Z,9.50
2023-03-19T05:39:25.334Z,9.50
2023-03-19T05:41:54.166Z,9.50
2023-03-19T05:44:22.937Z,9.50
2023-03-19T05:46:53.539Z,9.50
2023-03-19T05:49:22.229Z,9.50
2023-03-19T05:51:50.833Z,9.50
2023-03-19T05:54:19.616Z,9.50
2023-03-19T05:56:48.630Z,9.50
2023-03-19T05:59:18.803Z,9.50
2023-03-19T06:01:47.345Z,9.50
2023-03-19T06:04:17.557Z,9.50
2023-03-19T06:06:46.514Z,9.50
2023-03-19T06:09:15.489Z,9.50
2023-03-19T06:11:45.249Z,9.60
2023-03-19T06:14:14.096Z,9.60
2023-03-19T06:16:43.516Z,9.70
2023-03-19T06:19:13.109Z,9.70
2023-03-19T06:21:43.317Z,9.80
2023-03-19T06:24:11.904Z,9.70
2023-03-19T06:26:40.831Z,9.70
2023-03-19T06:29:09.381Z,9.70
2023-03-19T06:31:39.677Z,9.70
2023-03-19T06:34:08.700Z,9.70
2023-03-19T06:36:37.585Z,9.70
2023-03-19T06:39:08.042Z,9.70
2023-03-19T06:41:37.435Z,9.60
2023-03-19T06:44:06.238Z,9.60
2023-03-19T06:46:34.990Z,9.70
2023-03-19T06:49:03.598Z,9.80
2023-03-19T06:51:32.463Z,9.80
2023-03-19T06:54:01.161Z,9.90
2023-03-19T06:56:31.396Z,9.90
2023-03-19T06:59:00.562Z,9.90
2023-03-19T07:01:29.401Z,9.00
2023-03-19T07:03:58.688Z,10.10
2023-03-19T07:06:27.246Z,10.10
2023-03-19T07:08:56.325Z,10.30
2023-03-19T07:11:25.088Z,10.50
2023-03-19T07:13:55.151Z,10.60
2023-03-19T07:16:25.457Z,10.70
2023-03-19T07:18:53.932Z,10.90
2023-03-19T07:21:22.629Z,11.10
2023-03-19T07:23:52.842Z,11.40
2023-03-19T07:26:21.862Z,11.60
2023-03-19T07:28:51.030Z,11.80
2023-03-19T07:31:21.204Z,12.30
2023-03-19T07:33:49.728Z,13.10
2023-03-19T07:36:19.073Z,13.90
2023-03-19T07:38:47.556Z,14.60
2023-03-19T07:41:16.094Z,15.30
2023-03-19T07:43:44.680Z,15.70
2023-03-19T07:46:14.114Z,16.30
2023-03-19T07:48:44.709Z,16.60
2023-03-19T07:51:13.389Z,16.90
2023-03-19T07:53:41.908Z,17.20
2023-03-19T07:56:10.264Z,17.40
2023-03-19T07:58:38.734Z,17.90
2023-03-19T08:01:07.620Z,18.20
2023-03-19T08:03:36.212Z,18.30
2023-03-19T08:06:06.983Z,18.20
2023-03-19T08:08:36.160Z,18.20
2023-03-19T08:11:05.283Z,18.20
2023-03-19T08:13:34.331Z,18.50
2023-03-19T08:16:02.918Z,18.90
2023-03-19T08:18:31.806Z,19.40
2023-03-19T08:21:00.480Z,19.80
2023-03-19T08:23:30.803Z,20.10
2023-03-19T08:25:59.698Z,20.30
2023-03-19T08:28:28.179Z,20.20
2023-03-19T08:30:57.207Z,19.80
2023-03-19T08:33:26.061Z,19.50
2023-03-19T08:35:54.657Z,19.20
2023-03-19T08:38:23.347Z,19.50
2023-03-19T08:40:53.480Z,20.20
2023-03-19T08:43:22.282Z,21.20
2023-03-19T08:45:51.080Z,22.20
2023-03-19T08:48:20.861Z,23.10
2023-03-19T08:50:55.297Z,23.80
2023-03-19T08:53:24.577Z,24.90
2023-03-19T08:55:55.932Z,25.80
2023-03-19T08:58:25.541Z,26.40
2023-03-19T09:00:54.493Z,26.80
2023-03-19T09:03:23.230Z,27.20
2023-03-19T09:05:52.223Z,28.30
2023-03-19T09:08:21.724Z,29.50
2023-03-19T09:10:51.564Z,30.50
2023-03-19T09:13:23.890Z,31.30
2023-03-19T09:15:53.334Z,31.70
2023-03-19T09:18:24.199Z,32.30
2023-03-19T09:20:52.881Z,32.60
2023-03-19T09:23:22.283Z,32.90
2023-03-19T09:25:51.566Z,32.70
2023-03-19T09:28:23.452Z,32.30
2023-03-19T09:30:53.056Z,31.30
2023-03-19T09:33:22.880Z,30.30
2023-03-19T09:35:53.524Z,29.90
2023-03-19T09:38:22.520Z,29.50
2023-03-19T09:41:05.005Z,29.60
2023-03-19T09:44:01.193Z,30.00
2023-03-19T09:46:40.123Z,30.70
2023-03-19T09:49:16.328Z,31.60
2023-03-19T09:51:52.507Z,32.40
2023-03-19T09:54:32.300Z,33.20
2023-03-19T09:57:01.624Z,33.50
2023-03-19T09:59:32.158Z,33.10
2023-03-19T10:02:15.695Z,32.90
2023-03-19T10:04:53.174Z,33.00
2023-03-19T10:07:40.079Z,33.40
2023-03-19T10:10:26.510Z,33.50
2023-03-19T10:13:02.145Z,33.10
2023-03-19T10:15:36.304Z,32.90
2023-03-19T10:18:12.300Z,32.40
2023-03-19T10:20:47.967Z,32.10
2023-03-19T10:23:34.056Z,32.20
2023-03-19T10:26:05.915Z,32.40
2023-03-19T10:28:34.387Z,32.80
2023-03-19T10:31:15.454Z,33.40
2023-03-19T10:33:47.221Z,33.90
2023-03-19T10:36:16.460Z,33.80
2023-03-19T10:38:46.449Z,33.60
2023-03-19T10:41:26.739Z,33.40
2023-03-19T10:43:58.669Z,33.60
2023-03-19T10:46:29.653Z,33.20
2023-03-19T10:48:59.738Z,32.60
2023-03-19T10:51:29.763Z,32.00
2023-03-19T10:54:02.509Z,31.70
2023-03-19T10:56:37.046Z,31.30
2023-03-19T10:59:07.597Z,30.80
2023-03-19T11:01:41.090Z,30.30
2023-03-19T11:04:18.851Z,30.20
2023-03-19T11:06:51.222Z,29.90
2023-03-19T11:09:25.693Z,30.10
2023-03-19T11:11:59.597Z,30.20
2023-03-19T11:14:34.382Z,30.40
2023-03-19T11:17:08.528Z,30.10
2023-03-19T11:19:43.539Z,29.70
2023-03-19T11:22:21.128Z,29.80
2023-03-19T11:24:56.298Z,29.80
2023-03-19T11:27:34.835Z,29.60
2023-03-19T11:30:04.818Z,29.90
2023-03-19T11:33:10.598Z,30.30
2023-03-19T11:35:43.318Z,30.80
2023-03-19T11:38:19.588Z,31.50
2023-03-19T11:40:54.921Z,31.70
2023-03-19T11:43:44.320Z,31.20
2023-03-19T11:46:25.441Z,31.20
2023-03-19T11:49:27.573Z,31.10
2023-03-19T11:52:06.154Z,30.50
2023-03-19T11:54:45.252Z,30.90
2023-03-19T11:57:19.859Z,30.70
2023-03-19T12:00:01.673Z,30.70
2023-03-19T12:03:09.777Z,31.00
2023-03-19T12:05:50.024Z,30.90
2023-03-19T12:08:35.657Z,29.90
2023-03-19T12:11:14.475Z,28.90
2023-03-19T12:13:59.556Z,28.20
2023-03-19T12:16:44.130Z,27.80
2023-03-19T12:19:35.672Z,27.90
2023-03-19T12:22:16.745Z,27.70
2023-03-19T12:24:57.813Z,27.70
2023-03-19T12:27:34.990Z,27.30
2023-03-19T12:30:14.146Z,26.60
2023-03-19T12:32:58.338Z,26.20
2023-03-19T12:35:35.853Z,25.70
2023-03-19T12:38:12.219Z,25.00
2023-03-19T12:40:45.284Z,24.30
2023-03-19T12:43:20.350Z,23.70
2023-03-19T12:45:52.525Z,23.30
2023-03-19T12:48:27.930Z,23.00
2023-03-19T12:51:01.187Z,22.80
2023-03-19T12:53:41.805Z,22.50
2023-03-19T12:56:14.772Z,22.20
2023-03-19T12:58:58.129Z,22.10
2023-03-19T13:01:32.322Z,22.00
2023-03-19T13:04:08.056Z,22.10
2023-03-19T13:06:39.738Z,22.10
2023-03-19T13:09:18.949Z,22.10
2023-03-19T13:11:52.462Z,21.90
2023-03-19T13:14:29.147Z,21.80
2023-03-19T13:17:04.248Z,21.70
2023-03-19T13:19:40.554Z,21.60
2023-03-19T13:22:14.060Z,21.50
2023-03-19T13:24:46.330Z,21.50
2023-03-19T13:27:20.928Z,21.40
2023-03-19T13:30:08.430Z,21.30
2023-03-19T13:32:42.603Z,21.20
2023-03-19T13:35:22.197Z,21.00
2023-03-19T13:37:56.940Z,20.70
2023-03-19T13:40:55.417Z,20.50
2023-03-19T13:43:49.385Z,20.10
2023-03-19T13:46:41.099Z,19.80
2023-03-19T13:49:29.036Z,19.60
2023-03-19T13:52:18.303Z,19.40
2023-03-19T13:54:48.051Z,19.20
2023-03-19T13:57:37.823Z,19.00
2023-03-19T14:00:48.933Z,18.80
2023-03-19T14:03:25.906Z,18.60
2023-03-19T14:05:58.122Z,18.50
2023-03-19T14:08:29.214Z,18.40
2023-03-19T14:10:59.925Z,18.40
2023-03-19T14:13:34.012Z,18.30
2023-03-19T14:16:10.895Z,18.20
2023-03-19T14:18:44.505Z,18.10
2023-03-19T14:21:22.123Z,18.10
2023-03-19T14:24:01.127Z,18.10
2023-03-19T14:26:30.622Z,18.00
2023-03-19T14:29:04.530Z,17.90
2023-03-19T14:31:43.999Z,17.90
2023-03-19T14:34:29.239Z,17.70
2023-03-19T14:37:03.917Z,17.60
2023-03-19T14:39:34.408Z,17.40
2023-03-19T14:42:07.386Z,17.30
2023-03-19T14:45:10.212Z,17.30
2023-03-19T14:48:02.193Z,17.20
2023-03-19T14:50:56.167Z,16.90
2023-03-19T14:53:30.691Z,16.60
2023-03-19T14:56:12.674Z,16.40
2023-03-19T14:58:50.824Z,16.20
2023-03-19T15:01:20.138Z,16.00
2023-03-19T15:03:59.214Z,16.10
2023-03-19T15:06:35.407Z,16.00
2023-03-19T15:09:05.614Z,15.90
2023-03-19T15:11:53.678Z,15.80
2023-03-19T15:14:46.557Z,15.70
2023-03-19T15:17:23.008Z,15.50
2023-03-19T15:19:52.272Z,15.40
2023-03-19T15:22:28.111Z,15.20
2023-03-19T15:25:06.214Z,14.90
2023-03-19T15:27:35.512Z,14.80
2023-03-19T15:30:50.518Z,14.50
2023-03-19T15:33:39.021Z,14.20
2023-03-19T15:36:13.634Z,14.10
2023-03-19T15:38:47.923Z,14.00
2023-03-19T15:41:17.491Z,14.00
2023-03-19T15:43:47.203Z,14.00
2023-03-19T15:46:19.600Z,13.90
2023-03-19T15:48:52.758Z,13.90
2023-03-19T15:51:24.763Z,13.80
2023-03-19T15:53:56.602Z,13.70
2023-03-19T15:56:26.695Z,13.60
2023-03-19T15:58:58.961Z,13.60
2023-03-19T16:01:29.320Z,13.50
2023-03-19T16:04:02.504Z,13.50
2023-03-19T16:06:34.335Z,13.40
2023-03-19T16:09:23.350Z,13.50
2023-03-19T16:11:52.498Z,13.40
2023-03-19T16:14:27.193Z,13.30
2023-03-19T16:17:02.787Z,13.20
2023-03-19T16:19:34.582Z,13.10
2023-03-19T16:22:06.209Z,13.10
2023-03-19T16:24:37.824Z,13.00
2023-03-19T16:27:09.192Z,13.00
2023-03-19T16:29:42.002Z,13.00
2023-03-19T16:32:22.864Z,13.00
2023-03-19T16:34:53.883Z,12.90
2023-03-19T16:37:39.993Z,12.90
2023-03-19T16:40:46.877Z,12.90
2023-03-19T16:43:21.786Z,12.90
2023-03-19T16:45:54.879Z,12.90
2023-03-19T16:48:23.385Z,12.90
2023-03-19T16:50:52.449Z,12.90
2023-03-19T16:53:24.864Z,12.90
2023-03-19T16:55:57.051Z,12.90
2023-03-19T16:58:34.299Z,12.80
2023-03-19T17:01:03.464Z,12.60
2023-03-19T17:03:32.043Z,12.50
2023-03-19T17:06:03.273Z,12.40
2023-03-19T17:08:33.727Z,12.10
2023-03-19T17:11:04.584Z,12.00
2023-03-19T17:13:35.210Z,12.00
2023-03-19T17:16:06.956Z,11.90
2023-03-19T17:18:37.906Z,11.80
2023-03-19T17:21:12.843Z,11.70
2023-03-19T17:23:42.036Z,11.70
2023-03-19T17:26:18.979Z,11.70
2023-03-19T17:28:48.792Z,11.80
2023-03-19T17:31:28.275Z,11.80
2023-03-19T17:34:01.780Z,11.80
2023-03-19T17:36:31.242Z,11.70
2023-03-19T17:39:00.112Z,11.80
2023-03-19T17:41:33.243Z,11.80
2023-03-19T17:44:04.272Z,11.80
2023-03-19T17:46:40.980Z,11.90
2023-03-19T17:49:20.363Z,11.90
2023-03-19T17:51:48.938Z,11.90
2023-03-19T17:54:17.655Z,11.90
2023-03-19T17:56:48.061Z,11.90
2023-03-19T17:59:16.854Z,11.90
2023-03-19T18:01:47.375Z,11.90
2023-03-19T18:04:19.805Z,11.80
2023-03-19T18:06:51.914Z,11.70
2023-03-19T18:09:23.001Z,11.60
2023-03-19T18:11:54.626Z,11.60
2023-03-19T18:14:23.154Z,11.60
2023-03-19T18:16:52.541Z,11.60
2023-03-19T18:19:29.343Z,11.60
2023-03-19T18:21:58.194Z,11.60
2023-03-19T18:24:27.351Z,11.60
2023-03-19T18:26:57.982Z,11.50
2023-03-19T18:29:27.011Z,11.60
2023-03-19T18:31:56.146Z,11.40
2023-03-19T18:34:25.385Z,11.40
2023-03-19T18:36:54.151Z,11.30
2023-03-19T18:39:23.079Z,11.30
2023-03-19T18:41:51.757Z,11.20
2023-03-19T18:44:21.760Z,11.10
2023-03-19T18:46:50.520Z,11.00
2023-03-19T18:49:24.379Z,10.90
2023-03-19T18:52:02.504Z,10.80
2023-03-19T18:54:32.181Z,10.70
2023-03-19T18:57:02.532Z,10.60
2023-03-19T18:59:34.397Z,10.40
2023-03-19T19:02:04.925Z,10.20
2023-03-19T19:04:34.015Z,10.10
2023-03-19T19:07:03.889Z,9.90
2023-03-19T19:09:32.695Z,9.70
2023-03-19T19:12:02.394Z,9.60
2023-03-19T19:14:33.016Z,9.50
2023-03-19T19:17:03.370Z,9.30
2023-03-19T19:19:35.216Z,9.20
2023-03-19T19:22:04.352Z,9.10
2023-03-19T19:24:34.619Z,9.10
2023-03-19T19:27:04.049Z,9.00
2023-03-19T19:29:34.620Z,8.90
2023-03-19T19:32:04.557Z,8.90
2023-03-19T19:34:33.547Z,8.80
2023-03-19T19:37:02.983Z,8.80
2023-03-19T19:39:31.449Z,8.70
2023-03-19T19:42:00.054Z,8.70
2023-03-19T19:44:29.229Z,8.60
2023-03-19T19:46:59.283Z,8.60
2023-03-19T19:49:29.233Z,8.60
2023-03-19T19:51:59.711Z,8.60
2023-03-19T19:54:28.754Z,8.50
2023-03-19T19:56:58.060Z,8.50
2023-03-19T19:59:28.092Z,8.50
2023-03-19T20:01:59.138Z,8.60
2023-03-19T20:04:45.410Z,8.60
2023-03-19T20:07:15.840Z,8.50
2023-03-19T20:09:48.308Z,8.50
2023-03-19T20:12:22.333Z,8.60
2023-03-19T20:14:55.201Z,8.60
2023-03-19T20:17:24.136Z,8.60
2023-03-19T20:19:54.206Z,8.60
2023-03-19T20:22:23.209Z,8.70
2023-03-19T20:24:52.522Z,8.70
2023-03-19T20:27:24.053Z,8.70
2023-03-19T20:29:55.052Z,8.70
2023-03-19T20:32:31.166Z,8.80
2023-03-19T20:35:03.829Z,8.80
2023-03-19T20:37:35.179Z,8.80
2023-03-19T20:40:04.326Z,8.80
2023-03-19T20:42:35.663Z,8.80
2023-03-19T20:45:04.824Z,8.80
2023-03-19T20:47:36.569Z,8.80
2023-03-19T20:50:11.400Z,8.70
2023-03-19T20:52:43.368Z,8.70
2023-03-19T20:55:17.178Z,8.70
2023-03-19T20:57:49.431Z,8.70
2023-03-19T21:00:24.890Z,8.70
2023-03-19T21:03:03.711Z,8.70
2023-03-19T21:05:40.911Z,8.70
2023-03-19T21:08:20.012Z,8.70
2023-03-19T21:10:53.342Z,8.70
2023-03-19T21:13:26.099Z,8.80
2023-03-19T21:15:56.500Z,8.80
2023-03-19T21:18:28.280Z,8.80
2023-03-19T21:21:13.349Z,8.80
2023-03-19T21:23:57.532Z,8.80
2023-03-19T21:26:28.845Z,8.70
2023-03-19T21:29:03.064Z,8.40
2023-03-19T21:31:40.946Z,8.90
2023-03-19T21:34:28.470Z,8.80
2023-03-19T21:36:57.898Z,8.80
2023-03-19T21:39:30.275Z,8.80
2023-03-19T21:41:59.305Z,8.80
2023-03-19T21:44:30.438Z,8.80
2023-03-19T21:46:59.616Z,8.80
2023-03-19T21:49:32.062Z,8.80
2023-03-19T21:52:03.537Z,8.80
2023-03-19T21:54:35.061Z,8.80
2023-03-19T21:57:03.751Z,8.80
2023-03-19T21:59:35.428Z,8.80
2023-03-19T22:02:04.305Z,8.70
2023-03-19T22:04:32.721Z,8.60
2023-03-19T22:07:01.485Z,8.60
2023-03-19T22:09:30.096Z,8.60
2023-03-19T22:12:00.385Z,8.60
2023-03-19T22:14:30.302Z,8.60
2023-03-19T22:17:01.219Z,8.50
2023-03-19T22:19:30.024Z,8.50
2023-03-19T22:21:59.098Z,8.40
2023-03-19T22:24:28.701Z,8.30
2023-03-19T22:27:01.545Z,8.30
2023-03-19T22:29:32.863Z,8.30
2023-03-19T22:32:02.019Z,8.30
2023-03-19T22:34:31.161Z,8.30
2023-03-19T22:37:00.597Z,8.30
2023-03-19T22:39:29.145Z,8.30
2023-03-19T22:41:57.597Z,8.30
2023-03-19T22:44:30.509Z,8.40
2023-03-19T22:47:02.054Z,8.40
2023-03-19T22:49:31.749Z,8.40
2023-03-19T22:52:01.148Z,8.40
2023-03-19T22:54:29.933Z,8.50
2023-03-19T22:56:58.755Z,8.50
2023-03-19T22:59:28.852Z,8.50
2023-03-19T23:01:58.366Z,8.50
2023-03-19T23:04:28.729Z,8.50
2023-03-19T23:07:01.179Z,8.50
2023-03-19T23:09:31.924Z,8.50
2023-03-19T23:12:03.374Z,8.50
2023-03-19T23:14:33.449Z,8.50
2023-03-19T23:17:04.290Z,8.60
2023-03-19T23:19:35.580Z,8.50
2023-03-19T23:22:06.567Z,8.50
2023-03-19T23:24:36.983Z,8.50
2023-03-19T23:27:06.086Z,8.50
2023-03-19T23:29:47.771Z,8.60
2023-03-19T23:32:17.198Z,8.60
2023-03-19T23:34:58.554Z,8.50
2023-03-19T23:37:30.149Z,8.50
2023-03-19T23:39:59.147Z,8.60
2023-03-19T23:42:30.385Z,8.60
2023-03-19T23:45:03.919Z,8.70
2023-03-19T23:47:33.317Z,8.70
2023-03-19T23:50:02.773Z,8.70
2023-03-19T23:52:31.849Z,8.70
2023-03-19T23:55:00.738Z,8.70
2023-03-19T23:57:29.335Z,8.70
2023-03-19T23:59:58.124Z,8.80
